Time,TemperatureF,DewpointF,PressureIn,WindDirection,WindDirectionDegrees,WindSpeedMPH,WindSpeedGustMPH,Humidity,HourlyPrecipIn,Conditions,Clouds,dailyrainin,SoftwareType,DateUTC
2013-08-20 00:01:00,64.2,61.5,30.11,North,-999,0.0,0.0,91,0.00,,,-99.99,WeatherLink 5.7,2013-08-20 04:01:00,
2013-08-20 00:11:00,64.3,61.6,30.11,North,-999,0.0,0.0,91,0.00,,,-99.99,WeatherLink 5.7,2013-08-20 04:11:00,
2013-08-20 00:21:00,64.4,62.0,30.11,North,-999,0.0,0.0,92,0.00,,,-99.99,WeatherLink 5.7,2013-08-20 04:21:00,
2013-08-20 00:31:00,64.6,62.2,30.11,North,-999,0.0,0.0,92,0.00,,,-99.99,WeatherLink 5.7,2013-08-20 04:31:00,
2013-08-20 00:41:00,64.7,62.3,30.11,North,-999,0.0,0.0,92,0.00,,,-99.99,WeatherLink 5.7,2013-08-20 04:41:00,
2013-08-20 00:51:00,64.8,62.4,30.10,ENE,67,0.0,1.0,92,0.00,,,-99.99,WeatherLink 5.7,2013-08-20 04:51:00,
2013-08-20 01:01:00,64.9,62.5,30.10,North,-999,0.0,0.0,92,0.00,,,-99.99,WeatherLink 5.7,2013-08-20 05:01:00,
2013-08-20 01:11:00,64.7,62.0,30.10,North,-999,0.0,0.0,91,0.00,,,-99.99,WeatherLink 5.7,2013-08-20 05:11:00,
2013-08-20 01:21:00,64.5,62.1,30.09,North,-999,0.0,0.0,92,0.00,,,-99.99,WeatherLink 5.7,2013-08-20 05:21:00,
2013-08-20 01:31:00,64.4,62.0,30.10,North,-999,0.0,0.0,92,0.00,,,-99.99,WeatherLink 5.7,2013-08-20 05:31:00,
2013-08-20 01:41:00,64.5,62.1,30.10,ENE,67,0.0,2.0,92,0.00,,,-99.99,WeatherLink 5.7,2013-08-20 05:41:00,
2013-08-20 01:51:00,64.7,62.3,30.10,ENE,67,0.0,2.0,92,0.00,,,-99.99,WeatherLink 5.7,2013-08-20 05:51:00,
2013-08-20 02:01:00,64.8,62.4,30.09,North,0,1.0,2.0,92,0.00,,,-99.99,WeatherLink 5.7,2013-08-20 06:01:00,
2013-08-20 02:11:00,64.9,62.5,30.10,North,0,0.0,2.0,92,0.00,,,-99.99,WeatherLink 5.7,2013-08-20 06:11:00,
2013-08-20 02:21:00,64.9,62.2,30.09,North,0,1.0,2.0,91,0.00,,,-99.99,WeatherLink 5.7,2013-08-20 06:21:00,
2013-08-20 02:31:00,64.9,62.2,30.10,North,0,1.0,2.0,91,0.00,,,-99.99,WeatherLink 5.7,2013-08-20 06:31:00,
2013-08-20 02:41:00,64.8,62.1,30.09,North,0,0.0,2.0,91,0.00,,,-99.99,WeatherLink 5.7,2013-08-20 06:41:00,
2013-08-20 02:51:00,64.7,62.0,30.10,North,0,0.0,1.0,91,0.00,,,-99.99,WeatherLink 5.7,2013-08-20 06:51:00,
2013-08-20 03:01:00,64.7,62.0,30.09,North,0,0.0,1.0,91,0.00,,,-99.99,WeatherLink 5.7,2013-08-20 07:01:00,
2013-08-20 03:11:00,64.6,61.9,30.09,North,0,0.0,1.0,91,0.00,,,-99.99,WeatherLink 5.7,2013-08-20 07:11:00,
2013-08-20 03:21:00,64.5,62.1,30.09,North,-999,0.0,0.0,92,0.00,,,-99.99,WeatherLink 5.7,2013-08-20 07:21:00,
2013-08-20 03:31:00,64.3,61.9,30.10,North,-999,0.0,0.0,92,0.00,,,-99.99,WeatherLink 5.7,2013-08-20 07:31:00,
2013-08-20 03:41:00,64.1,61.7,30.10,North,-999,0.0,0.0,92,0.00,,,-99.99,WeatherLink 5.7,2013-08-20 07:41:00,
2013-08-20 03:51:00,63.9,61.5,30.09,North,-999,0.0,0.0,92,0.00,,,-99.99,WeatherLink 5.7,2013-08-20 07:51:00,
2013-08-20 04:01:00,63.7,61.0,30.10,North,-999,0.0,0.0,91,0.00,,,-99.99,WeatherLink 5.7,2013-08-20 08:01:00,
2013-08-20 04:11:00,63.6,61.2,30.09,North,-999,0.0,0.0,92,0.00,,,-99.99,WeatherLink 5.7,2013-08-20 08:11:00,
2013-08-20 04:22:00,63.5,61.1,30.10,North,-999,0.0,0.0,92,0.00,,,-99.99,WeatherLink 5.7,2013-08-20 08:22:00,
2013-08-20 04:31:00,63.4,60.7,30.10,North,-999,0.0,0.0,91,0.00,,,-99.99,WeatherLink 5.7,2013-08-20 08:31:00,
2013-08-20 04:41:00,63.4,60.7,30.10,North,-999,0.0,0.0,91,0.00,,,-99.99,WeatherLink 5.7,2013-08-20 08:41:00,
2013-08-20 04:51:00,63.3,60.6,30.10,North,-999,0.0,0.0,91,0.00,,,-99.99,WeatherLink 5.7,2013-08-20 08:51:00,
2013-08-20 05:01:00,63.3,60.9,30.10,North,-999,0.0,0.0,92,0.00,,,-99.99,WeatherLink 5.7,2013-08-20 09:01:00,
2013-08-20 05:11:00,63.2,60.5,30.11,North,-999,0.0,0.0,91,0.00,,,-99.99,WeatherLink 5.7,2013-08-20 09:11:00,
2013-08-20 05:21:00,63.1,60.7,30.10,North,-999,0.0,0.0,92,0.00,,,-99.99,WeatherLink 5.7,2013-08-20 09:21:00,
2013-08-20 05:31:00,63.0,60.3,30.11,North,-999,0.0,0.0,91,0.00,,,-99.99,WeatherLink 5.7,2013-08-20 09:31:00,
2013-08-20 05:41:00,62.9,60.2,30.11,North,-999,0.0,0.0,91,0.00,,,-99.99,WeatherLink 5.7,2013-08-20 09:41:00,
2013-08-20 05:51:00,62.8,60.4,30.11,North,-999,0.0,0.0,92,0.00,,,-99.99,WeatherLink 5.7,2013-08-20 09:51:00,
2013-08-20 06:01:00,62.7,60.0,30.11,North,-999,0.0,0.0,91,0.00,,,-99.99,WeatherLink 5.7,2013-08-20 10:01:00,
2013-08-20 06:12:00,62.5,60.1,30.12,North,-999,0.0,0.0,92,0.00,,,-99.99,WeatherLink 5.7,2013-08-20 10:12:00,
2013-08-20 06:21:00,62.4,60.0,30.12,North,-999,0.0,0.0,92,0.00,,,-99.99,WeatherLink 5.7,2013-08-20 10:21:00,
2013-08-20 06:31:00,62.4,60.0,30.13,North,-999,0.0,0.0,92,0.00,,,-99.99,WeatherLink 5.7,2013-08-20 10:31:00,
2013-08-20 06:41:00,62.5,60.1,30.13,North,-999,0.0,0.0,92,0.00,,,-99.99,WeatherLink 5.7,2013-08-20 10:41:00,
2013-08-20 06:51:00,62.6,60.2,30.14,North,-999,0.0,0.0,92,0.00,,,-99.99,WeatherLink 5.7,2013-08-20 10:51:00,
2013-08-20 07:01:00,62.6,60.2,30.14,North,-999,0.0,0.0,92,0.00,,,-99.99,WeatherLink 5.7,2013-08-20 11:01:00,
2013-08-20 07:11:00,62.7,60.6,30.13,North,-999,0.0,0.0,93,0.00,,,-99.99,WeatherLink 5.7,2013-08-20 11:11:00,
2013-08-20 07:22:00,62.9,60.8,30.14,North,-999,0.0,0.0,93,0.00,,,-99.99,WeatherLink 5.7,2013-08-20 11:22:00,
2013-08-20 07:31:00,63.1,61.0,30.14,North,-999,0.0,0.0,93,0.00,,,-99.99,WeatherLink 5.7,2013-08-20 11:31:00,
2013-08-20 07:41:00,63.4,61.3,30.15,North,-999,0.0,0.0,93,0.00,,,-99.99,WeatherLink 5.7,2013-08-20 11:41:00,
2013-08-20 07:51:00,63.7,61.6,30.15,North,-999,0.0,0.0,93,0.00,,,-99.99,WeatherLink 5.7,2013-08-20 11:51:00,
2013-08-20 08:01:00,64.2,62.1,30.15,North,-999,0.0,0.0,93,0.00,,,-99.99,WeatherLink 5.7,2013-08-20 12:01:00,
2013-08-20 08:11:00,64.6,62.5,30.15,North,-999,0.0,0.0,93,0.00,,,-99.99,WeatherLink 5.7,2013-08-20 12:11:00,
2013-08-20 08:21:00,65.0,62.9,30.16,North,-999,0.0,0.0,93,0.00,,,-99.99,WeatherLink 5.7,2013-08-20 12:21:00,
2013-08-20 08:32:00,65.4,63.3,30.15,North,-999,0.0,0.0,93,0.00,,,-99.99,WeatherLink 5.7,2013-08-20 12:32:00,
2013-08-20 08:41:00,65.8,63.4,30.16,North,-999,0.0,0.0,92,0.00,,,-99.99,WeatherLink 5.7,2013-08-20 12:41:00,
2013-08-20 08:51:00,66.3,63.9,30.15,North,-999,0.0,0.0,92,0.00,,,-99.99,WeatherLink 5.7,2013-08-20 12:51:00,
2013-08-20 09:01:00,66.8,64.1,30.15,North,-999,0.0,0.0,91,0.00,,,-99.99,WeatherLink 5.7,2013-08-20 13:01:00,
2013-08-20 09:11:00,67.2,64.2,30.16,North,-999,0.0,0.0,90,0.00,,,-99.99,WeatherLink 5.7,2013-08-20 13:11:00,
2013-08-20 09:21:00,67.8,64.4,30.16,North,-999,0.0,0.0,89,0.00,,,-99.99,WeatherLink 5.7,2013-08-20 13:21:00,
2013-08-20 09:31:00,68.4,65.0,30.16,North,-999,0.0,0.0,89,0.00,,,-99.99,WeatherLink 5.7,2013-08-20 13:31:00,
2013-08-20 09:42:00,68.9,65.2,30.16,North,-999,0.0,0.0,88,0.00,,,-99.99,WeatherLink 5.7,2013-08-20 13:42:00,
2013-08-20 09:52:00,69.5,65.5,30.16,North,0,0.0,1.0,87,0.00,,,-99.99,WeatherLink 5.7,2013-08-20 13:52:00,
2013-08-20 10:01:00,70.1,65.4,30.17,North,0,0.0,2.0,85,0.00,,,-99.99,WeatherLink 5.7,2013-08-20 14:01:00,
2013-08-20 10:11:00,70.6,65.2,30.17,North,0,0.0,2.0,83,0.00,,,-99.99,WeatherLink 5.7,2013-08-20 14:11:00,
2013-08-20 10:21:00,71.1,65.0,30.17,North,0,0.0,1.0,81,0.00,,,-99.99,WeatherLink 5.7,2013-08-20 14:21:00,
2013-08-20 10:31:00,71.4,65.3,30.17,North,0,0.0,1.0,81,0.00,,,-99.99,WeatherLink 5.7,2013-08-20 14:31:00,
2013-08-20 10:41:00,71.8,65.7,30.17,North,0,0.0,1.0,81,0.00,,,-99.99,WeatherLink 5.7,2013-08-20 14:41:00,
2013-08-20 10:51:00,72.2,66.0,30.17,North,-999,0.0,0.0,81,0.00,,,-99.99,WeatherLink 5.7,2013-08-20 14:51:00,
2013-08-20 11:02:00,72.8,66.3,30.17,North,0,0.0,1.0,80,0.00,,,-99.99,WeatherLink 5.7,2013-08-20 15:02:00,
2013-08-20 11:11:00,73.2,66.7,30.17,North,0,0.0,1.0,80,0.00,,,-99.99,WeatherLink 5.7,2013-08-20 15:11:00,
2013-08-20 11:21:00,73.5,65.8,30.17,North,0,0.0,1.0,77,0.00,,,-99.99,WeatherLink 5.7,2013-08-20 15:21:00,
2013-08-20 11:31:00,73.9,66.6,30.17,North,-999,0.0,0.0,78,0.00,,,-99.99,WeatherLink 5.7,2013-08-20 15:31:00,
2013-08-20 11:41:00,74.2,64.6,30.17,North,0,0.0,2.0,72,0.00,,,-99.99,WeatherLink 5.7,2013-08-20 15:41:00,
2013-08-20 11:51:00,74.6,64.6,30.16,NE,45,0.0,1.0,71,0.00,,,-99.99,WeatherLink 5.7,2013-08-20 15:51:00,
2013-08-20 12:01:00,74.9,65.3,30.17,NE,45,0.0,1.0,72,0.00,,,-99.99,WeatherLink 5.7,2013-08-20 16:01:00,
2013-08-20 12:11:00,75.0,65.8,30.17,North,-999,0.0,0.0,73,0.00,,,-99.99,WeatherLink 5.7,2013-08-20 16:11:00,
2013-08-20 12:21:00,75.2,64.3,30.17,NE,45,0.0,1.0,69,0.00,,,-99.99,WeatherLink 5.7,2013-08-20 16:21:00,
2013-08-20 12:31:00,75.5,64.2,30.17,NE,45,0.0,2.0,68,0.00,,,-99.99,WeatherLink 5.7,2013-08-20 16:31:00,
2013-08-20 12:41:00,75.8,64.9,30.16,North,-999,0.0,0.0,69,0.00,,,-99.99,WeatherLink 5.7,2013-08-20 16:41:00,
2013-08-20 12:51:00,76.1,66.0,30.16,ENE,67,0.0,1.0,71,0.00,,,-99.99,WeatherLink 5.7,2013-08-20 16:51:00,
2013-08-20 13:01:00,76.2,64.0,30.16,North,-999,0.0,0.0,66,0.00,,,-99.99,WeatherLink 5.7,2013-08-20 17:01:00,
2013-08-20 13:11:00,76.4,64.6,30.16,North,-999,0.0,0.0,67,0.00,,,-99.99,WeatherLink 5.7,2013-08-20 17:11:00,
2013-08-20 13:21:00,76.7,64.5,30.16,ENE,67,0.0,1.0,66,0.00,,,-99.99,WeatherLink 5.7,2013-08-20 17:21:00,
2013-08-20 13:31:00,77.0,65.6,30.15,ENE,67,0.0,1.0,68,0.00,,,-99.99,WeatherLink 5.7,2013-08-20 17:31:00,
2013-08-20 13:42:00,77.0,64.8,30.15,North,-999,0.0,0.0,66,0.00,,,-99.99,WeatherLink 5.7,2013-08-20 17:42:00,
2013-08-20 13:51:00,76.9,65.1,30.15,ENE,67,0.0,2.0,67,0.00,,,-99.99,WeatherLink 5.7,2013-08-20 17:51:00,
2013-08-20 14:01:00,77.2,65.4,30.15,East,90,0.0,1.0,67,0.00,,,-99.99,WeatherLink 5.7,2013-08-20 18:01:00,
2013-08-20 14:11:00,77.3,65.5,30.15,East,90,0.0,1.0,67,0.00,,,-99.99,WeatherLink 5.7,2013-08-20 18:11:00,
2013-08-20 14:21:00,77.7,66.7,30.15,East,90,0.0,1.0,69,0.00,,,-99.99,WeatherLink 5.7,2013-08-20 18:21:00,
2013-08-20 14:31:00,77.7,66.7,30.15,North,-999,0.0,0.0,69,0.00,,,-99.99,WeatherLink 5.7,2013-08-20 18:31:00,
2013-08-20 14:41:00,77.7,66.7,30.14,South,180,0.0,2.0,69,0.00,,,-99.99,WeatherLink 5.7,2013-08-20 18:41:00,
2013-08-20 14:51:00,78.3,64.2,30.13,ENE,67,0.0,2.0,62,0.00,,,-99.99,WeatherLink 5.7,2013-08-20 18:51:00,
2013-08-20 15:01:00,78.8,66.9,30.14,ENE,67,0.0,1.0,67,0.00,,,-99.99,WeatherLink 5.7,2013-08-20 19:01:00,
2013-08-20 15:11:00,78.3,64.7,30.14,ENE,67,0.0,1.0,63,0.00,,,-99.99,WeatherLink 5.7,2013-08-20 19:11:00,
2013-08-20 15:21:00,78.1,66.2,30.13,ENE,67,0.0,2.0,67,0.00,,,-99.99,WeatherLink 5.7,2013-08-20 19:21:00,
2013-08-20 15:31:00,77.9,66.1,30.14,ENE,67,0.0,2.0,67,0.00,,,-99.99,WeatherLink 5.7,2013-08-20 19:31:00,
2013-08-20 15:41:00,77.9,67.3,30.14,East,90,0.0,2.0,70,0.00,,,-99.99,WeatherLink 5.7,2013-08-20 19:41:00,
2013-08-20 15:51:00,77.7,67.1,30.13,East,90,0.0,2.0,70,0.00,,,-99.99,WeatherLink 5.7,2013-08-20 19:51:00,
2013-08-20 16:02:00,77.6,67.4,30.13,East,90,0.0,1.0,71,0.00,,,-99.99,WeatherLink 5.7,2013-08-20 20:02:00,
2013-08-20 16:11:00,77.6,67.9,30.13,North,-999,0.0,1.0,72,0.00,,,-99.99,WeatherLink 5.7,2013-08-20 20:11:00,
2013-08-20 16:21:00,77.5,67.8,30.13,North,-999,0.0,0.0,72,0.00,,,-99.99,WeatherLink 5.7,2013-08-20 20:21:00,
2013-08-20 16:31:00,77.5,67.8,30.13,ENE,67,0.0,1.0,72,0.00,,,-99.99,WeatherLink 5.7,2013-08-20 20:31:00,
2013-08-20 16:41:00,77.4,67.3,30.12,North,-999,0.0,0.0,71,0.00,,,-99.99,WeatherLink 5.7,2013-08-20 20:41:00,
2013-08-20 16:51:00,77.3,67.6,30.12,ENE,67,0.0,2.0,72,0.00,,,-99.99,WeatherLink 5.7,2013-08-20 20:51:00,
2013-08-20 17:01:00,77.2,67.5,30.12,East,90,0.0,2.0,72,0.00,,,-99.99,WeatherLink 5.7,2013-08-20 21:01:00,
2013-08-20 17:11:00,77.1,67.0,30.12,SE,135,0.0,1.0,71,0.00,,,-99.99,WeatherLink 5.7,2013-08-20 21:11:00,
2013-08-20 17:21:00,76.8,67.1,30.13,SE,135,0.0,1.0,72,0.00,,,-99.99,WeatherLink 5.7,2013-08-20 21:21:00,
2013-08-20 17:31:00,76.6,67.3,30.13,North,-999,0.0,0.0,73,0.00,,,-99.99,WeatherLink 5.7,2013-08-20 21:31:00,
2013-08-20 17:41:00,76.5,66.8,30.13,North,-999,0.0,0.0,72,0.00,,,-99.99,WeatherLink 5.7,2013-08-20 21:41:00,
2013-08-20 17:51:00,76.2,66.9,30.13,North,-999,0.0,0.0,73,0.00,,,-99.99,WeatherLink 5.7,2013-08-20 21:51:00,
2013-08-20 18:02:00,76.1,67.2,30.13,North,-999,0.0,0.0,74,0.00,,,-99.99,WeatherLink 5.7,2013-08-20 22:02:00,
2013-08-20 18:11:00,75.9,67.0,30.13,North,-999,0.0,0.0,74,0.00,,,-99.99,WeatherLink 5.7,2013-08-20 22:11:00,
2013-08-20 18:21:00,75.7,66.8,30.13,North,-999,0.0,0.0,74,0.00,,,-99.99,WeatherLink 5.7,2013-08-20 22:21:00,
2013-08-20 18:31:00,75.5,66.6,30.13,North,-999,0.0,0.0,74,0.00,,,-99.99,WeatherLink 5.7,2013-08-20 22:31:00,
2013-08-20 18:42:00,75.3,66.4,30.13,North,-999,0.0,0.0,74,0.00,,,-99.99,WeatherLink 5.7,2013-08-20 22:42:00,
2013-08-20 18:51:00,75.2,66.3,30.13,North,-999,0.0,0.0,74,0.00,,,-99.99,WeatherLink 5.7,2013-08-20 22:51:00,
2013-08-20 19:01:00,75.0,66.1,30.13,North,-999,0.0,0.0,74,0.00,,,-99.99,WeatherLink 5.7,2013-08-20 23:01:00,
2013-08-20 19:11:00,74.8,66.0,30.13,North,-999,0.0,0.0,74,0.00,,,-99.99,WeatherLink 5.7,2013-08-20 23:11:00,
2013-08-20 19:21:00,74.5,65.7,30.14,North,-999,0.0,0.0,74,0.00,,,-99.99,WeatherLink 5.7,2013-08-20 23:21:00,
2013-08-20 19:31:00,74.3,65.9,30.14,North,-999,0.0,0.0,75,0.00,,,-99.99,WeatherLink 5.7,2013-08-20 23:31:00,
2013-08-20 19:41:00,74.0,66.0,30.14,North,-999,0.0,0.0,76,0.00,,,-99.99,WeatherLink 5.7,2013-08-20 23:41:00,
2013-08-20 19:51:00,73.8,66.1,30.14,North,-999,0.0,0.0,77,0.00,,,-99.99,WeatherLink 5.7,2013-08-20 23:51:00,
2013-08-20 20:01:00,73.4,65.7,30.14,North,-999,0.0,0.0,77,0.00,,,-99.99,WeatherLink 5.7,2013-08-21 00:01:00,
2013-08-20 20:11:00,73.1,65.8,30.15,North,-999,0.0,0.0,78,0.00,,,-99.99,WeatherLink 5.7,2013-08-21 00:11:00,
2013-08-20 20:21:00,72.7,65.4,30.14,North,-999,0.0,0.0,78,0.00,,,-99.99,WeatherLink 5.7,2013-08-21 00:21:00,
2013-08-20 20:31:00,72.4,65.5,30.14,North,-999,0.0,0.0,79,0.00,,,-99.99,WeatherLink 5.7,2013-08-21 00:31:00,
2013-08-20 20:41:00,72.0,65.1,30.15,North,-999,0.0,0.0,79,0.00,,,-99.99,WeatherLink 5.7,2013-08-21 00:41:00,
2013-08-20 20:51:00,71.8,64.9,30.15,North,-999,0.0,0.0,79,0.00,,,-99.99,WeatherLink 5.7,2013-08-21 00:51:00,
2013-08-20 21:01:00,71.5,65.0,30.16,North,-999,0.0,0.0,80,0.00,,,-99.99,WeatherLink 5.7,2013-08-21 01:01:00,
2013-08-20 21:11:00,71.2,65.1,30.16,North,-999,0.0,0.0,81,0.00,,,-99.99,WeatherLink 5.7,2013-08-21 01:11:00,
2013-08-20 21:21:00,70.9,65.1,30.17,North,-999,0.0,0.0,82,0.00,,,-99.99,WeatherLink 5.7,2013-08-21 01:21:00,
2013-08-20 21:31:00,70.7,64.9,30.17,North,-999,0.0,0.0,82,0.00,,,-99.99,WeatherLink 5.7,2013-08-21 01:31:00,
2013-08-20 21:41:00,70.5,65.1,30.17,North,-999,0.0,0.0,83,0.00,,,-99.99,WeatherLink 5.7,2013-08-21 01:41:00,
2013-08-20 21:51:00,70.3,64.9,30.17,North,-999,0.0,0.0,83,0.00,,,-99.99,WeatherLink 5.7,2013-08-21 01:51:00,
2013-08-20 22:01:00,70.1,64.7,30.17,North,-999,0.0,0.0,83,0.00,,,-99.99,WeatherLink 5.7,2013-08-21 02:01:00,
2013-08-20 22:11:00,69.9,64.8,30.18,North,-999,0.0,0.0,84,0.00,,,-99.99,WeatherLink 5.7,2013-08-21 02:11:00,
2013-08-20 22:21:00,69.8,64.7,30.17,North,-999,0.0,0.0,84,0.00,,,-99.99,WeatherLink 5.7,2013-08-21 02:21:00,
2013-08-20 22:31:00,69.6,64.5,30.18,North,-999,0.0,0.0,84,0.00,,,-99.99,WeatherLink 5.7,2013-08-21 02:31:00,
2013-08-20 22:41:00,69.5,64.5,30.17,North,-999,0.0,0.0,84,0.00,,,-99.99,WeatherLink 5.7,2013-08-21 02:41:00,
2013-08-20 22:51:00,69.4,64.0,30.17,North,-999,0.0,0.0,83,0.00,,,-99.99,WeatherLink 5.7,2013-08-21 02:51:00,
2013-08-20 23:01:00,69.3,63.6,30.18,North,-999,0.0,0.0,82,0.00,,,-99.99,WeatherLink 5.7,2013-08-21 03:01:00,
2013-08-20 23:11:00,69.1,63.7,30.18,North,-999,0.0,0.0,83,0.00,,,-99.99,WeatherLink 5.7,2013-08-21 03:11:00,
2013-08-20 23:21:00,69.0,63.6,30.18,North,-999,0.0,0.0,83,0.00,,,-99.99,WeatherLink 5.7,2013-08-21 03:21:00,
2013-08-20 23:31:00,68.8,63.4,30.19,North,-999,0.0,0.0,83,0.00,,,-99.99,WeatherLink 5.7,2013-08-21 03:31:00,
2013-08-20 23:41:00,68.6,63.6,30.18,North,-999,0.0,0.0,84,0.00,,,-99.99,WeatherLink 5.7,2013-08-21 03:41:00,
2013-08-20 23:51:00,68.2,63.2,30.18,North,-999,0.0,0.0,84,0.00,,,-99.99,WeatherLink 5.7,2013-08-21 03:51:00,